Time;durP1;ratioP1;P1;durP2;ratioP2;P2;SDS_P1;SDS_P2;PMS_P1;PMS_P2;Temp;Humidity;BMP_temperature;BMP_pressure;BME280_temperature;BME280_humidity;BME280_pressure;Samples;Min_cycle;Max_cycle;Signal;HPM_P1;HPM_P2
2022/05/21 00:00:54;;;;;;;5.30;3.07;;;;;;;;;;5076730;28;20740;-69
2022/05/21 00:03:26;;;;;;;3.00;2.53;;;;;;;;;;5075730;28;20492;-71
2022/05/21 00:05:57;;;;;;;5.60;2.90;;;;;;;;;;5077204;28;20686;-71
2022/05/21 00:08:24;;;;;;;4.53;2.50;;;;;;;;;;5077048;28;20526;-71
2022/05/21 00:10:53;;;;;;;7.90;3.00;;;;;;;;;;5076260;28;20754;-71
2022/05/21 00:13:20;;;;;;;4.93;2.50;;;;;;;;;;5075989;28;20789;-71
2022/05/21 00:15:50;;;;;;;4.17;2.30;;;;;;;;;;5075584;28;20445;-70
2022/05/21 00:18:19;;;;;;;4.00;1.80;;;;;;;;;;5076831;28;20456;-71
2022/05/21 00:20:48;;;;;;;4.87;2.30;;;;;;;;;;5077693;28;20452;-71
2022/05/21 00:23:17;;;;;;;5.30;2.17;;;;;;;;;;5076390;28;20571;-71
2022/05/21 00:25:46;;;;;;;4.60;2.33;;;;;;;;;;5077078;28;20452;-71
2022/05/21 00:28:14;;;;;;;3.00;2.40;;;;;;;;;;5075100;28;20716;-72
2022/05/21 00:30:42;;;;;;;7.77;2.67;;;;;;;;;;5077211;28;20857;-71
2022/05/21 00:33:09;;;;;;;4.97;1.97;;;;;;;;;;5076134;28;20444;-71
2022/05/21 00:35:37;;;;;;;5.60;2.97;;;;;;;;;;5075672;28;20534;-71
2022/05/21 00:38:06;;;;;;;6.50;2.40;;;;;;;;;;5076337;28;20468;-71
2022/05/21 00:40:34;;;;;;;7.80;2.53;;;;;;;;;;5076013;28;20858;-71
2022/05/21 00:43:01;;;;;;;3.13;2.10;;;;;;;;;;5075571;28;20496;-71
2022/05/21 00:45:30;;;;;;;6.97;2.70;;;;;;;;;;5077366;28;20466;-71
2022/05/21 00:47:58;;;;;;;4.77;3.33;;;;;;;;;;5075226;28;20461;-71
2022/05/21 00:50:27;;;;;;;6.80;2.47;;;;;;;;;;5075792;28;20448;-71
2022/05/21 00:52:55;;;;;;;5.93;2.70;;;;;;;;;;5076217;28;20448;-71
2022/05/21 00:55:26;;;;;;;4.17;2.50;;;;;;;;;;5075453;28;20527;-70
2022/05/21 01:00:38;;;;;;;5.80;3.00;;;;;;;;;;5075209;28;20729;-71
2022/05/21 01:03:06;;;;;;;4.40;2.33;;;;;;;;;;5075358;28;20542;-71
2022/05/21 01:05:33;;;;;;;4.43;2.97;;;;;;;;;;5076270;28;21032;-71
2022/05/21 01:08:03;;;;;;;13.77;2.73;;;;;;;;;;5076072;28;20536;-71
2022/05/21 01:10:34;;;;;;;7.00;2.73;;;;;;;;;;5075635;28;20733;-69
2022/05/21 01:13:03;;;;;;;4.90;2.77;;;;;;;;;;5075660;28;20478;-70
2022/05/21 01:15:31;;;;;;;4.17;3.17;;;;;;;;;;5075455;28;20459;-71
2022/05/21 01:17:59;;;;;;;3.90;2.30;;;;;;;;;;5075200;28;20928;-71
2022/05/21 01:20:36;;;;;;;7.27;4.20;;;;;;;;;;5075046;28;20457;-71
2022/05/21 01:23:06;;;;;;;4.40;2.87;;;;;;;;;;5075238;28;20483;-71
2022/05/21 01:25:35;;;;;;;5.37;3.10;;;;;;;;;;5075666;28;20453;-70
2022/05/21 01:28:03;;;;;;;7.40;3.17;;;;;;;;;;5075209;28;20468;-71
2022/05/21 01:30:32;;;;;;;5.17;3.10;;;;;;;;;;5075914;28;20449;-71
2022/05/21 01:33:00;;;;;;;5.33;3.33;;;;;;;;;;5075409;28;20457;-71
2022/05/21 01:35:28;;;;;;;5.53;3.53;;;;;;;;;;5068498;28;20757;-70
2022/05/21 01:37:55;;;;;;;6.90;3.03;;;;;;;;;;5055679;28;20461;-71
2022/05/21 01:40:27;;;;;;;5.53;3.27;;;;;;;;;;5055137;28;20896;-69
2022/05/21 01:45:39;;;;;;;3.57;2.50;;;;;;;;;;5055168;28;20434;-72
2022/05/21 01:48:18;;;;;;;6.50;3.00;;;;;;;;;;5056469;28;20511;-71
2022/05/21 01:50:46;;;;;;;7.73;2.63;;;;;;;;;;5063857;28;20445;-71
2022/05/21 01:53:16;;;;;;;7.57;3.20;;;;;;;;;;5061404;28;20456;-71
2022/05/21 01:55:46;;;;;;;5.23;2.97;;;;;;;;;;5064939;28;20445;-71
2022/05/21 01:58:14;;;;;;;3.20;2.67;;;;;;;;;;5055509;28;20457;-71
2022/05/21 02:00:42;;;;;;;5.57;2.43;;;;;;;;;;5070885;28;20441;-70
2022/05/21 02:03:11;;;;;;;5.53;3.27;;;;;;;;;;5066871;28;20488;-71
2022/05/21 02:05:39;;;;;;;3.83;2.53;;;;;;;;;;5076610;28;20521;-71
2022/05/21 02:08:07;;;;;;;3.47;2.20;;;;;;;;;;5067343;28;20457;-71
2022/05/21 02:10:38;;;;;;;6.60;3.13;;;;;;;;;;5070734;28;20522;-71
2022/05/21 02:13:07;;;;;;;5.43;2.80;;;;;;;;;;5077025;28;20849;-72
2022/05/21 02:15:35;;;;;;;8.00;2.90;;;;;;;;;;5072418;28;20708;-71
2022/05/21 02:18:02;;;;;;;4.30;2.73;;;;;;;;;;5060277;28;20458;-71
2022/05/21 02:20:30;;;;;;;4.40;2.50;;;;;;;;;;5066853;28;20456;-71
2022/05/21 02:22:58;;;;;;;5.50;2.30;;;;;;;;;;5068871;28;20497;-71
2022/05/21 02:25:25;;;;;;;4.30;2.50;;;;;;;;;;5069737;28;20551;-71
2022/05/21 02:27:56;;;;;;;6.87;2.63;;;;;;;;;;5077688;28;20464;-71
2022/05/21 02:30:28;;;;;;;3.80;2.23;;;;;;;;;;5059084;28;20476;-71
2022/05/21 02:32:56;;;;;;;4.60;2.20;;;;;;;;;;5059310;28;20456;-71
2022/05/21 02:35:24;;;;;;;7.77;2.87;;;;;;;;;;5066547;28;20465;-71
2022/05/21 02:40:39;;;;;;;5.03;1.70;;;;;;;;;;5065084;28;20443;-71
2022/05/21 02:43:07;;;;;;;3.30;1.90;;;;;;;;;;5074156;28;20484;-71
2022/05/21 02:45:36;;;;;;;5.53;1.80;;;;;;;;;;5072944;28;20464;-71
2022/05/21 02:48:05;;;;;;;3.07;1.83;;;;;;;;;;5069206;28;20468;-71
2022/05/21 02:50:34;;;;;;;5.23;2.23;;;;;;;;;;5059115;28;20528;-71
2022/05/21 02:53:01;;;;;;;4.50;2.37;;;;;;;;;;5057596;28;20479;-71
2022/05/21 02:55:29;;;;;;;4.73;2.37;;;;;;;;;;5058266;28;20449;-71
2022/05/21 02:57:57;;;;;;;3.83;2.20;;;;;;;;;;5058180;28;20889;-71
2022/05/21 03:00:25;;;;;;;4.70;2.20;;;;;;;;;;5056984;28;20484;-70
2022/05/21 03:02:54;;;;;;;3.40;2.00;;;;;;;;;;5057737;28;20463;-71
2022/05/21 03:05:25;;;;;;;3.83;2.73;;;;;;;;;;5057591;28;20904;-71
2022/05/21 03:07:54;;;;;;;5.30;2.20;;;;;;;;;;5058367;28;20598;-71
2022/05/21 03:10:22;;;;;;;4.77;2.50;;;;;;;;;;5071918;28;20982;-71
2022/05/21 03:12:50;;;;;;;4.43;2.30;;;;;;;;;;5079088;28;20459;-72
2022/05/21 03:15:18;;;;;;;3.80;2.43;;;;;;;;;;5078631;28;20931;-72
2022/05/21 03:17:47;;;;;;;5.00;2.70;;;;;;;;;;5078184;28;20456;-71
2022/05/21 03:20:16;;;;;;;3.00;2.20;;;;;;;;;;5079190;28;20541;-71
2022/05/21 03:22:44;;;;;;;4.37;2.80;;;;;;;;;;5077985;28;20452;-70
2022/05/21 03:25:13;;;;;;;6.90;3.90;;;;;;;;;;5078098;28;20489;-70
2022/05/21 03:27:41;;;;;;;5.00;2.87;;;;;;;;;;5077533;28;20483;-70
2022/05/21 03:30:14;;;;;;;4.33;2.70;;;;;;;;;;5078103;28;20806;-72
2022/05/21 03:32:42;;;;;;;3.93;2.70;;;;;;;;;;5078796;28;20887;-71
2022/05/21 03:35:21;;;;;;;6.00;3.60;;;;;;;;;;5077828;28;20455;-71
2022/05/21 03:37:49;;;;;;;5.40;4.57;;;;;;;;;;5077371;28;20925;-71
2022/05/21 03:40:18;;;;;;;5.10;4.60;;;;;;;;;;5076998;28;20457;-71
2022/05/21 03:42:48;;;;;;;6.80;4.73;;;;;;;;;;5077123;28;20486;-71
2022/05/21 03:45:16;;;;;;;9.07;6.03;;;;;;;;;;5077234;28;20535;-71
2022/05/21 03:47:45;;;;;;;6.67;5.20;;;;;;;;;;5077281;28;20886;-72
2022/05/21 03:50:13;;;;;;;10.83;6.63;;;;;;;;;;5078061;28;20493;-71
2022/05/21 03:52:42;;;;;;;10.00;5.93;;;;;;;;;;5076175;28;20456;-71
2022/05/21 03:55:10;;;;;;;7.67;5.33;;;;;;;;;;5077651;28;20465;-70
2022/05/21 03:57:44;;;;;;;9.73;6.07;;;;;;;;;;5075863;28;20489;-69
2022/05/21 04:00:13;;;;;;;6.17;4.67;;;;;;;;;;5077418;28;20456;-70
2022/05/21 04:02:43;;;;;;;5.47;4.00;;;;;;;;;;5076013;28;20453;-71
2022/05/21 04:05:11;;;;;;;7.60;3.63;;;;;;;;;;5076504;28;20589;-71
2022/05/21 04:07:39;;;;;;;4.70;3.70;;;;;;;;;;5076566;28;20457;-72
2022/05/21 04:10:10;;;;;;;4.83;3.50;;;;;;;;;;5076615;28;20715;-70
2022/05/21 04:12:37;;;;;;;4.63;3.87;;;;;;;;;;5076728;28;20728;-71
2022/05/21 04:15:05;;;;;;;8.27;3.17;;;;;;;;;;5077059;28;20452;-71
2022/05/21 04:17:32;;;;;;;6.00;3.03;;;;;;;;;;5076139;28;20853;-69
2022/05/21 04:20:00;;;;;;;4.03;2.87;;;;;;;;;;5077028;28;20466;-71
2022/05/21 04:22:28;;;;;;;6.03;3.23;;;;;;;;;;5075687;28;20456;-71
2022/05/21 04:24:56;;;;;;;10.00;3.33;;;;;;;;;;5076618;28;20484;-71
2022/05/21 04:27:25;;;;;;;7.30;3.50;;;;;;;;;;5076666;28;20872;-71
2022/05/21 04:29:52;;;;;;;5.13;3.27;;;;;;;;;;5076479;28;20745;-71
2022/05/21 04:32:20;;;;;;;4.30;3.40;;;;;;;;;;5076021;28;20490;-69
2022/05/21 04:34:48;;;;;;;6.40;4.10;;;;;;;;;;5076282;28;20826;-70
2022/05/21 04:37:15;;;;;;;6.43;3.30;;;;;;;;;;5076208;28;20853;-70
2022/05/21 04:39:50;;;;;;;5.63;3.37;;;;;;;;;;5075835;28;20448;-71
2022/05/21 04:42:17;;;;;;;8.00;3.30;;;;;;;;;;5076219;28;20891;-71
2022/05/21 04:44:46;;;;;;;5.53;3.80;;;;;;;;;;5076708;28;20483;-71
2022/05/21 04:47:14;;;;;;;8.17;3.60;;;;;;;;;;5076395;28;20833;-71
2022/05/21 04:49:42;;;;;;;4.63;3.07;;;;;;;;;;5075822;28;20968;-71
2022/05/21 04:52:10;;;;;;;7.57;4.67;;;;;;;;;;5075563;28;20502;-70
2022/05/21 04:54:38;;;;;;;4.30;3.03;;;;;;;;;;5075896;28;20444;-70
2022/05/21 04:57:06;;;;;;;8.27;3.70;;;;;;;;;;5076090;28;20879;-71
2022/05/21 04:59:34;;;;;;;9.47;3.27;;;;;;;;;;5075272;28;20512;-71
2022/05/21 05:02:03;;;;;;;7.00;3.80;;;;;;;;;;5075680;28;20472;-70
2022/05/21 05:04:33;;;;;;;3.93;3.20;;;;;;;;;;5075744;28;20495;-71
2022/05/21 05:07:01;;;;;;;7.43;3.97;;;;;;;;;;5075898;28;20456;-71
2022/05/21 05:09:29;;;;;;;7.37;4.57;;;;;;;;;;5075964;28;20468;-71
2022/05/21 05:11:56;;;;;;;10.13;4.77;;;;;;;;;;5074870;28;20920;-71
2022/05/21 05:14:24;;;;;;;6.67;4.47;;;;;;;;;;5075144;28;20464;-71
2022/05/21 05:16:52;;;;;;;7.90;4.97;;;;;;;;;;5076373;28;20449;-71
2022/05/21 05:19:21;;;;;;;10.40;5.53;;;;;;;;;;5075194;28;20461;-71
2022/05/21 05:21:49;;;;;;;9.43;5.57;;;;;;;;;;5075276;28;20491;-72
2022/05/21 05:24:16;;;;;;;7.80;5.67;;;;;;;;;;5074756;28;20511;-71
2022/05/21 05:26:44;;;;;;;9.87;5.70;;;;;;;;;;5075362;28;20453;-71
2022/05/21 05:29:12;;;;;;;8.53;5.73;;;;;;;;;;5075212;28;20475;-71
2022/05/21 05:31:40;;;;;;;6.30;5.20;;;;;;;;;;5073981;28;20444;-71
2022/05/21 05:34:08;;;;;;;7.80;6.13;;;;;;;;;;5075374;28;20475;-70
2022/05/21 05:36:40;;;;;;;15.63;7.13;;;;;;;;;;5074158;28;20451;-71
2022/05/21 05:39:08;;;;;;;8.17;5.77;;;;;;;;;;5075524;28;20841;-70
2022/05/21 05:41:38;;;;;;;12.50;7.10;;;;;;;;;;5074487;28;20535;-71
2022/05/21 05:44:07;;;;;;;10.77;7.33;;;;;;;;;;5075320;28;20576;-70
2022/05/21 05:46:35;;;;;;;9.17;7.00;;;;;;;;;;5074605;28;20460;-71
2022/05/21 05:49:03;;;;;;;10.33;7.83;;;;;;;;;;5075445;28;20452;-71
2022/05/21 05:51:31;;;;;;;9.23;7.80;;;;;;;;;;5075886;28;20869;-71
2022/05/21 05:54:00;;;;;;;13.63;7.70;;;;;;;;;;5075255;28;20530;-71
2022/05/21 05:56:27;;;;;;;16.10;8.20;;;;;;;;;;5075424;28;20846;-71
2022/05/21 06:01:41;;;;;;;11.17;8.33;;;;;;;;;;5073088;28;20493;-71
2022/05/21 06:04:09;;;;;;;15.57;9.43;;;;;;;;;;5073568;28;20480;-70
2022/05/21 06:06:37;;;;;;;11.63;9.10;;;;;;;;;;5062817;28;20472;-72
2022/05/21 06:09:09;;;;;;;12.83;9.60;;;;;;;;;;5055248;28;20457;-72
2022/05/21 06:11:38;;;;;;;13.97;9.83;;;;;;;;;;5064089;28;20701;-71
2022/05/21 06:14:05;;;;;;;19.00;10.97;;;;;;;;;;5074741;28;20554;-72
2022/05/21 06:16:33;;;;;;;14.30;10.00;;;;;;;;;;5074271;28;20845;-71
2022/05/21 06:19:04;;;;;;;9.93;7.93;;;;;;;;;;5073676;28;20468;-72
2022/05/21 06:21:32;;;;;;;16.67;9.97;;;;;;;;;;5074695;28;20513;-71
2022/05/21 06:23:59;;;;;;;13.80;8.80;;;;;;;;;;5074683;28;20868;-71
2022/05/21 06:26:28;;;;;;;14.17;10.20;;;;;;;;;;5073894;28;20453;-70
2022/05/21 06:28:56;;;;;;;13.23;10.27;;;;;;;;;;5074749;28;21162;-70
2022/05/21 06:31:24;;;;;;;12.03;9.83;;;;;;;;;;5073710;28;20460;-71
2022/05/21 06:33:52;;;;;;;12.57;9.37;;;;;;;;;;5073785;28;20452;-72
2022/05/21 06:36:20;;;;;;;16.60;11.97;;;;;;;;;;5074461;28;20456;-72
2022/05/21 06:38:48;;;;;;;14.30;11.00;;;;;;;;;;5073665;28;20460;-70
2022/05/21 06:41:15;;;;;;;14.57;10.70;;;;;;;;;;5074547;28;20826;-70
2022/05/21 06:43:45;;;;;;;20.57;11.07;;;;;;;;;;5074081;28;20459;-70
2022/05/21 06:46:13;;;;;;;11.60;9.47;;;;;;;;;;5076788;28;20492;-70
2022/05/21 06:48:42;;;;;;;14.83;10.30;;;;;;;;;;5077966;28;20517;-70
2022/05/21 06:51:10;;;;;;;18.53;12.07;;;;;;;;;;5076005;28;20475;-71
2022/05/21 06:53:54;;;;;;;16.27;10.40;;;;;;;;;;5077508;28;20639;-70
2022/05/21 06:56:22;;;;;;;14.60;12.27;;;;;;;;;;5077711;28;20524;-69
2022/05/21 06:58:51;;;;;;;17.07;10.23;;;;;;;;;;5076102;28;20460;-69
2022/05/21 07:01:20;;;;;;;15.73;9.33;;;;;;;;;;5077015;28;20456;-71
2022/05/21 07:03:48;;;;;;;15.47;10.50;;;;;;;;;;5076746;28;20460;-71
2022/05/21 07:09:01;;;;;;;13.40;9.17;;;;;;;;;;5077433;28;20440;-71
2022/05/21 07:11:29;;;;;;;15.67;11.37;;;;;;;;;;5076431;28;20514;-70
2022/05/21 07:13:58;;;;;;;16.47;11.73;;;;;;;;;;5076758;28;20462;-70
2022/05/21 07:16:26;;;;;;;13.40;11.17;;;;;;;;;;5075202;28;20472;-71
2022/05/21 07:18:54;;;;;;;14.70;9.90;;;;;;;;;;5077511;28;21149;-71
2022/05/21 07:21:21;;;;;;;13.13;7.60;;;;;;;;;;5078144;28;20440;-70
2022/05/21 07:23:50;;;;;;;14.13;10.40;;;;;;;;;;5075974;28;20456;-69
2022/05/21 07:26:25;;;;;;;14.77;10.47;;;;;;;;;;5064625;28;20470;-71
2022/05/21 07:28:52;;;;;;;11.00;9.30;;;;;;;;;;5058065;28;20540;-71
2022/05/21 07:31:29;;;;;;;15.40;8.67;;;;;;;;;;5056618;28;20487;-71
2022/05/21 07:33:56;;;;;;;15.30;9.57;;;;;;;;;;5057931;28;20540;-71
2022/05/21 07:36:25;;;;;;;11.40;7.77;;;;;;;;;;5057770;28;20441;-71
2022/05/21 07:38:53;;;;;;;14.77;8.47;;;;;;;;;;5055790;28;20751;-71
2022/05/21 07:41:21;;;;;;;11.13;8.40;;;;;;;;;;5057493;28;20517;-71
2022/05/21 07:43:51;;;;;;;13.07;8.23;;;;;;;;;;5068049;28;20881;-73
2022/05/21 07:46:19;;;;;;;12.07;7.50;;;;;;;;;;5076876;28;20480;-70
2022/05/21 07:48:48;;;;;;;11.70;6.50;;;;;;;;;;5077777;28;20530;-70
2022/05/21 07:51:16;;;;;;;13.80;8.00;;;;;;;;;;5075925;28;20765;-70
2022/05/21 07:53:44;;;;;;;13.37;7.90;;;;;;;;;;5065829;28;20469;-70
2022/05/21 07:56:12;;;;;;;9.20;6.87;;;;;;;;;;5054940;28;20449;-71
2022/05/21 07:58:42;;;;;;;11.50;7.20;;;;;;;;;;5066697;28;20460;-71
2022/05/21 08:01:11;;;;;;;9.87;8.00;;;;;;;;;;5077199;28;20518;-68
2022/05/21 08:03:40;;;;;;;6.17;4.97;;;;;;;;;;5076037;28;20460;-71
2022/05/21 08:06:10;;;;;;;12.60;8.40;;;;;;;;;;5075692;28;20480;-72
2022/05/21 08:08:37;;;;;;;8.90;6.67;;;;;;;;;;5056154;28;20449;-70
2022/05/21 08:11:05;;;;;;;9.60;6.93;;;;;;;;;;5056981;28;20464;-70
2022/05/21 08:13:40;;;;;;;12.30;7.73;;;;;;;;;;5058700;28;20464;-72
2022/05/21 08:16:08;;;;;;;10.17;7.03;;;;;;;;;;5061233;28;20456;-70
2022/05/21 08:18:40;;;;;;;10.87;6.40;;;;;;;;;;5072695;28;20551;-70
2022/05/21 08:21:10;;;;;;;8.50;5.87;;;;;;;;;;5072965;28;20784;-71
2022/05/21 08:29:14;;;;;;;7.03;3.97;;;;;;;;;;5075749;28;20881;-73
2022/05/21 08:31:47;;;;;;;9.00;5.40;;;;;;;;;;5076702;28;20471;-74
2022/05/21 08:34:20;;;;;;;7.23;4.90;;;;;;;;;;5075828;28;20491;-71
2022/05/21 08:36:51;;;;;;;7.57;6.17;;;;;;;;;;5071846;28;20780;-72
2022/05/21 08:39:19;;;;;;;8.67;6.33;;;;;;;;;;5075420;28;20448;-71
2022/05/21 08:41:53;;;;;;;13.00;6.57;;;;;;;;;;5075771;28;20464;-70
2022/05/21 08:44:43;;;;;;;7.70;5.90;;;;;;;;;;5075305;28;20540;-70
2022/05/21 08:47:17;;;;;;;9.67;4.20;;;;;;;;;;5073368;28;20489;-70
2022/05/21 08:49:49;;;;;;;5.23;4.30;;;;;;;;;;5071729;28;20487;-70
2022/05/21 08:52:23;;;;;;;7.00;5.17;;;;;;;;;;5073628;28;20448;-71
2022/05/21 08:54:51;;;;;;;6.27;3.93;;;;;;;;;;5060442;28;20931;-70
2022/05/21 08:57:27;;;;;;;13.50;5.23;;;;;;;;;;5074276;28;20543;-71
2022/05/21 08:59:58;;;;;;;9.40;4.67;;;;;;;;;;5073728;28;20491;-70
2022/05/21 09:02:29;;;;;;;13.37;5.13;;;;;;;;;;5074374;28;20468;-71
2022/05/21 09:04:56;;;;;;;4.97;4.20;;;;;;;;;;5072917;28;20478;-72
2022/05/21 09:07:29;;;;;;;9.60;5.63;;;;;;;;;;5053807;28;20823;-71
2022/05/21 09:10:06;;;;;;;10.13;5.87;;;;;;;;;;5067442;28;20472;-70
2022/05/21 09:12:43;;;;;;;11.27;6.23;;;;;;;;;;5074499;28;20440;-69
2022/05/21 09:16:54;;;;;;;10.20;5.67;;;;;;;;;;5074614;28;20456;-72
2022/05/21 09:18:07;;;;;;;9.87;6.00;;;;;;;;;;5074377;28;20835;-72
2022/05/21 09:20:46;;;;;;;6.10;4.90;;;;;;;;;;5061973;28;20539;-70
2022/05/21 09:23:16;;;;;;;9.90;4.10;;;;;;;;;;5059874;28;20449;-71
2022/05/21 09:25:47;;;;;;;12.20;3.50;;;;;;;;;;5054840;28;20761;-71
2022/05/21 09:28:22;;;;;;;10.53;4.30;;;;;;;;;;5060160;28;20477;-71
2022/05/21 09:31:00;;;;;;;7.67;3.10;;;;;;;;;;5053998;28;20465;-73
2022/05/21 09:33:29;;;;;;;7.80;2.83;;;;;;;;;;5060763;28;20507;-72
2022/05/21 09:35:58;;;;;;;7.47;2.50;;;;;;;;;;5067257;28;20460;-72
2022/05/21 09:38:30;;;;;;;5.67;2.53;;;;;;;;;;5072801;28;20452;-70
2022/05/21 09:41:10;;;;;;;5.73;2.63;;;;;;;;;;5069997;28;20453;-72
2022/05/21 09:46:28;;;;;;;8.33;2.60;;;;;;;;;;5073672;28;20475;-70
2022/05/21 09:49:13;;;;;;;2.80;1.30;;;;;;;;;;5073108;28;20771;-70
2022/05/21 09:51:54;;;;;;;4.10;1.67;;;;;;;;;;5056376;28;20720;-70
2022/05/21 09:54:32;;;;;;;3.57;1.50;;;;;;;;;;5062095;28;20465;-71
2022/05/21 09:57:26;;;;;;;4.87;1.80;;;;;;;;;;5052530;28;20557;-71
2022/05/21 10:00:21;;;;;;;3.83;2.00;;;;;;;;;;5053306;28;20824;-71
2022/05/21 10:02:51;;;;;;;6.33;2.17;;;;;;;;;;5052147;28;20456;-72
2022/05/21 10:05:22;;;;;;;5.27;1.53;;;;;;;;;;5053408;28;20493;-70
2022/05/21 10:11:03;;;;;;;4.47;1.90;;;;;;;;;;5053841;28;20420;-72
2022/05/21 10:13:33;;;;;;;3.00;1.30;;;;;;;;;;5060902;28;20530;-72
2022/05/21 10:16:15;;;;;;;6.50;1.23;;;;;;;;;;5054057;28;20470;-71
2022/05/21 10:18:53;;;;;;;4.90;1.40;;;;;;;;;;5054970;28;20458;-71
2022/05/21 10:21:25;;;;;;;4.30;1.43;;;;;;;;;;5057375;28;21034;-70
2022/05/21 10:23:59;;;;;;;2.90;1.10;;;;;;;;;;5072456;28;20459;-72
2022/05/21 10:26:40;;;;;;;3.03;1.53;;;;;;;;;;5071049;28;20488;-71
2022/05/21 10:29:25;;;;;;;6.97;1.20;;;;;;;;;;5055336;28;20476;-72
2022/05/21 10:31:56;;;;;;;4.97;1.00;;;;;;;;;;5055423;28;20457;-71
2022/05/21 10:34:30;;;;;;;1.90;1.10;;;;;;;;;;5062018;28;20543;-71
2022/05/21 10:37:09;;;;;;;5.67;1.87;;;;;;;;;;5071023;28;20444;-71
2022/05/21 10:39:47;;;;;;;8.90;2.17;;;;;;;;;;5069869;28;20448;-71
2022/05/21 10:42:31;;;;;;;3.60;1.43;;;;;;;;;;5057270;28;20441;-70
2022/05/21 10:45:04;;;;;;;2.60;1.10;;;;;;;;;;5057142;28;20450;-74
2022/05/21 10:47:40;;;;;;;2.67;1.00;;;;;;;;;;5058197;28;20489;-70
2022/05/21 10:50:17;;;;;;;3.13;1.17;;;;;;;;;;5075995;28;20452;-71
2022/05/21 10:52:52;;;;;;;2.27;1.00;;;;;;;;;;5076948;28;20458;-71
2022/05/21 10:55:23;;;;;;;6.70;1.10;;;;;;;;;;5068404;28;20726;-71
2022/05/21 10:58:14;;;;;;;6.90;1.53;;;;;;;;;;5075745;28;20472;-71
2022/05/21 11:00:50;;;;;;;2.67;1.27;;;;;;;;;;5075467;28;20457;-70
2022/05/21 11:03:36;;;;;;;2.90;1.13;;;;;;;;;;5066559;28;21136;-71
2022/05/21 11:06:07;;;;;;;2.30;0.90;;;;;;;;;;5063839;28;20493;-71
2022/05/21 11:08:39;;;;;;;5.53;1.10;;;;;;;;;;5063387;28;20473;-70
2022/05/21 11:11:10;;;;;;;4.33;1.43;;;;;;;;;;5067529;28;20464;-71
2022/05/21 11:13:48;;;;;;;2.90;0.80;;;;;;;;;;5076369;28;20448;-71
2022/05/21 11:16:22;;;;;;;3.00;1.10;;;;;;;;;;5073829;28;20438;-71
2022/05/21 11:18:52;;;;;;;4.23;1.67;;;;;;;;;;5076523;28;20460;-71
2022/05/21 11:21:23;;;;;;;2.73;0.90;;;;;;;;;;5073562;28;20490;-71
2022/05/21 11:23:57;;;;;;;3.90;1.40;;;;;;;;;;5067154;28;20461;-70
2022/05/21 11:26:30;;;;;;;2.57;1.20;;;;;;;;;;5069505;28;20475;-72
2022/05/21 11:29:01;;;;;;;6.43;1.13;;;;;;;;;;5063038;28;20457;-72
2022/05/21 11:37:23;;;;;;;4.90;1.20;;;;;;;;;;5066710;28;20737;-70
2022/05/21 11:39:52;;;;;;;3.93;1.17;;;;;;;;;;5061029;28;20457;-72
2022/05/21 11:42:22;;;;;;;6.30;1.20;;;;;;;;;;5055736;28;20448;-70
2022/05/21 11:45:01;;;;;;;4.03;1.33;;;;;;;;;;5074002;28;20456;-72
2022/05/21 11:47:37;;;;;;;3.10;1.13;;;;;;;;;;5071274;28;20923;-70
2022/05/21 11:50:16;;;;;;;6.53;2.10;;;;;;;;;;5062848;28;20479;-71
2022/05/21 11:53:09;;;;;;;4.37;1.00;;;;;;;;;;5074374;28;20861;-71
2022/05/21 11:55:56;;;;;;;3.87;1.20;;;;;;;;;;5074410;28;20444;-71
2022/05/21 11:58:26;;;;;;;6.73;1.40;;;;;;;;;;5066841;28;20461;-71
2022/05/21 12:01:02;;;;;;;4.53;1.50;;;;;;;;;;5059804;28;20449;-70
2022/05/21 12:03:45;;;;;;;5.73;1.57;;;;;;;;;;5058246;28;20461;-71
2022/05/21 12:06:15;;;;;;;4.07;1.00;;;;;;;;;;5055920;28;20480;-69
2022/05/21 12:08:48;;;;;;;7.07;1.40;;;;;;;;;;5070557;28;20548;-70
2022/05/21 12:11:36;;;;;;;3.17;1.27;;;;;;;;;;5057446;28;20943;-70
2022/05/21 12:14:08;;;;;;;3.37;0.90;;;;;;;;;;5072607;28;20514;-70
2022/05/21 12:16:59;;;;;;;4.10;1.47;;;;;;;;;;5071151;28;20437;-71
2022/05/21 12:19:55;;;;;;;2.37;1.23;;;;;;;;;;5048453;28;20888;-70
2022/05/21 12:22:40;;;;;;;5.87;1.40;;;;;;;;;;5019695;28;20493;-71
2022/05/21 12:25:14;;;;;;;3.67;1.50;;;;;;;;;;5054846;28;20504;-73
2022/05/21 12:27:55;;;;;;;11.23;2.10;;;;;;;;;;5053928;28;20538;-71
2022/05/21 12:30:27;;;;;;;6.70;1.30;;;;;;;;;;5059101;28;20858;-70
2022/05/21 12:32:55;;;;;;;3.47;1.20;;;;;;;;;;5064216;28;20450;-71
2022/05/21 12:35:48;;;;;;;4.37;1.20;;;;;;;;;;5054787;28;20497;-70
2022/05/21 12:38:44;;;;;;;;;;;;;;;;;;;;;
2022/05/21 12:41:16;;;;;;;4.07;1.20;;;;;;;;;;5075537;28;20445;-71
2022/05/21 12:43:45;;;;;;;3.40;1.10;;;;;;;;;;5068516;28;20453;-72
2022/05/21 12:46:24;;;;;;;6.70;1.00;;;;;;;;;;5071299;28;20492;-71
2022/05/21 12:48:52;;;;;;;2.20;0.83;;;;;;;;;;5074985;28;20464;-71
2022/05/21 12:51:32;;;;;;;3.57;1.67;;;;;;;;;;5062188;28;20544;-70
2022/05/21 12:54:02;;;;;;;6.20;0.90;;;;;;;;;;5061228;28;20853;-70
2022/05/21 12:56:37;;;;;;;4.17;0.90;;;;;;;;;;5062007;28;20481;-71
2022/05/21 12:59:07;;;;;;;2.70;1.07;;;;;;;;;;5054466;28;20460;-72
2022/05/21 13:01:35;;;;;;;4.43;1.00;;;;;;;;;;5058042;28;20465;-70
2022/05/21 13:04:04;;;;;;;4.87;0.97;;;;;;;;;;5054115;28;20495;-71
2022/05/21 13:06:33;;;;;;;3.23;1.83;;;;;;;;;;5066008;28;20575;-71
2022/05/21 13:09:04;;;;;;;3.33;0.93;;;;;;;;;;5059617;28;20469;-71
2022/05/21 13:11:41;;;;;;;4.67;1.10;;;;;;;;;;5051464;28;20506;-70
2022/05/21 13:14:10;;;;;;;6.63;2.10;;;;;;;;;;5061763;28;20448;-72
2022/05/21 13:16:48;;;;;;;3.40;1.10;;;;;;;;;;5054579;28;20457;-73
2022/05/21 13:19:23;;;;;;;6.87;1.37;;;;;;;;;;5055129;28;20544;-71
2022/05/21 13:21:55;;;;;;;4.93;1.30;;;;;;;;;;5067254;28;20448;-71
2022/05/21 13:24:29;;;;;;;8.83;1.20;;;;;;;;;;5057106;28;20568;-72
2022/05/21 13:27:08;;;;;;;2.70;0.80;;;;;;;;;;5054015;28;20516;-70
2022/05/21 13:29:36;;;;;;;4.17;1.07;;;;;;;;;;5062521;28;20460;-73
2022/05/21 13:32:32;;;;;;;1.87;0.90;;;;;;;;;;5057648;28;20949;-71
2022/05/21 13:35:08;;;;;;;2.77;0.90;;;;;;;;;;5023920;28;20494;-72
2022/05/21 13:37:41;;;;;;;5.13;1.10;;;;;;;;;;5066409;28;20534;-71
2022/05/21 13:40:16;;;;;;;7.80;0.90;;;;;;;;;;5056308;28;20469;-71
2022/05/21 13:42:53;;;;;;;6.03;1.20;;;;;;;;;;5072390;28;20448;-73
2022/05/21 13:45:23;;;;;;;2.80;0.90;;;;;;;;;;5059999;28;20459;-71
2022/05/21 13:47:53;;;;;;;7.60;1.23;;;;;;;;;;5072523;28;20582;-71
2022/05/21 13:50:29;;;;;;;2.73;0.80;;;;;;;;;;5065574;28;20465;-72
2022/05/21 13:53:04;;;;;;;3.20;1.20;;;;;;;;;;5053381;28;20456;-72
2022/05/21 13:55:35;;;;;;;2.73;0.90;;;;;;;;;;5061115;28;20466;-72
2022/05/21 13:58:34;;;;;;;2.50;0.80;;;;;;;;;;5077049;28;20444;-72
2022/05/21 14:01:08;;;;;;;4.70;0.90;;;;;;;;;;5067949;28;20960;-71
2022/05/21 14:03:45;;;;;;;3.37;0.90;;;;;;;;;;5057535;28;20518;-70
2022/05/21 14:06:17;;;;;;;6.10;0.90;;;;;;;;;;5056844;28;20467;-71
2022/05/21 14:08:51;;;;;;;3.27;1.30;;;;;;;;;;5058127;28;21032;-70
2022/05/21 14:11:21;;;;;;;4.13;1.30;;;;;;;;;;5059400;28;20525;-72
2022/05/21 14:13:57;;;;;;;4.17;1.00;;;;;;;;;;5063518;28;21029;-71
2022/05/21 14:16:34;;;;;;;5.37;1.20;;;;;;;;;;5056840;28;20464;-70
2022/05/21 14:19:07;;;;;;;4.63;1.03;;;;;;;;;;5067551;28;20511;-72
2022/05/21 14:22:01;;;;;;;5.33;0.87;;;;;;;;;;5076899;28;20471;-72
2022/05/21 14:24:31;;;;;;;3.20;1.03;;;;;;;;;;5064340;28;20460;-70
2022/05/21 14:27:00;;;;;;;5.50;1.20;;;;;;;;;;5069621;28;20498;-71
2022/05/21 14:29:39;;;;;;;4.23;1.30;;;;;;;;;;5070235;28;21133;-71
2022/05/21 14:32:15;;;;;;;2.43;1.00;;;;;;;;;;5065663;28;20566;-72
2022/05/21 14:34:43;;;;;;;7.20;1.43;;;;;;;;;;5071708;28;20572;-71
2022/05/21 14:37:23;;;;;;;3.97;1.20;;;;;;;;;;5063479;28;20522;-71
2022/05/21 14:39:51;;;;;;;7.20;1.33;;;;;;;;;;5055624;28;20587;-71
2022/05/21 14:42:19;;;;;;;7.47;2.60;;;;;;;;;;5073234;28;21047;-70
2022/05/21 14:44:52;;;;;;;3.77;0.90;;;;;;;;;;5070179;28;20888;-70
2022/05/21 14:52:59;;;;;;;3.83;1.03;;;;;;;;;;5016238;28;21106;-70
2022/05/21 14:55:27;;;;;;;3.93;0.87;;;;;;;;;;5073709;28;20425;-71
2022/05/21 14:58:02;;;;;;;3.20;1.20;;;;;;;;;;5068142;28;20475;-71
2022/05/21 15:00:35;;;;;;;5.40;1.07;;;;;;;;;;5055529;28;20459;-70
2022/05/21 15:03:03;;;;;;;4.83;1.47;;;;;;;;;;5056324;28;20564;-71
2022/05/21 15:05:32;;;;;;;5.83;1.37;;;;;;;;;;5055078;28;20477;-70
2022/05/21 15:08:01;;;;;;;5.17;1.43;;;;;;;;;;5063807;28;20572;-71
2022/05/21 15:10:29;;;;;;;3.67;1.00;;;;;;;;;;5073150;28;20464;-70
2022/05/21 15:12:56;;;;;;;2.47;1.00;;;;;;;;;;5064930;28;20465;-73
2022/05/21 15:15:42;;;;;;;4.63;0.90;;;;;;;;;;5065870;28;20543;-72
2022/05/21 15:18:12;;;;;;;3.33;1.13;;;;;;;;;;5067772;28;20486;-72
2022/05/21 15:20:40;;;;;;;10.40;2.13;;;;;;;;;;5075739;28;20484;-71
2022/05/21 15:23:09;;;;;;;3.53;0.73;;;;;;;;;;5076560;28;20483;-72
2022/05/21 15:25:37;;;;;;;6.20;1.37;;;;;;;;;;5075505;28;20891;-71
2022/05/21 15:28:06;;;;;;;11.10;1.07;;;;;;;;;;5075854;28;20491;-71
2022/05/21 15:30:37;;;;;;;2.43;1.00;;;;;;;;;;5058537;28;20457;-71
2022/05/21 15:33:06;;;;;;;3.30;0.70;;;;;;;;;;5056120;28;20508;-70
2022/05/21 15:35:38;;;;;;;4.17;1.00;;;;;;;;;;5055357;28;20535;-71
2022/05/21 15:38:06;;;;;;;5.20;0.90;;;;;;;;;;5077060;28;20444;-70
2022/05/21 15:40:38;;;;;;;3.63;0.87;;;;;;;;;;5075121;28;20464;-72
2022/05/21 15:43:06;;;;;;;4.90;2.13;;;;;;;;;;5075060;28;20449;-72